createdAt,value
2022-09-02T00:00:20.921Z,4.40
2022-09-02T00:03:02.636Z,4.20
2022-09-02T00:05:32.540Z,3.90
2022-09-02T00:10:33.060Z,4.90
2022-09-02T00:13:02.627Z,4.20
2022-09-02T00:15:33.476Z,4.30
2022-09-02T00:18:04.118Z,3.90
2022-09-02T00:20:35.183Z,4.40
2022-09-02T00:23:05.510Z,4.70
2022-09-02T00:25:37.783Z,4.50
2022-09-02T00:28:08.399Z,4.80
2022-09-02T00:30:38.632Z,4.00
2022-09-02T00:33:09.151Z,4.20
2022-09-02T00:35:38.998Z,4.50
2022-09-02T00:38:09.505Z,4.90
2022-09-02T00:40:44.569Z,4.20
2022-09-02T00:43:45.189Z,4.20
2022-09-02T00:46:19.052Z,4.40
2022-09-02T00:49:11.991Z,4.20
2022-09-02T00:51:52.187Z,3.50
2022-09-02T00:54:23.983Z,3.70
2022-09-02T00:56:55.988Z,3.50
2022-09-02T00:59:39.868Z,4.40
2022-09-02T01:02:10.270Z,4.10
2022-09-02T01:04:40.679Z,4.00
2022-09-02T01:07:10.609Z,4.40
2022-09-02T01:09:41.495Z,4.60
2022-09-02T01:12:15.508Z,4.00
2022-09-02T01:14:46.542Z,3.70
2022-09-02T01:17:20.218Z,3.50
2022-09-02T01:19:54.672Z,3.70
2022-09-02T01:22:32.022Z,3.80
2022-09-02T01:25:12.483Z,4.10
2022-09-02T01:27:42.843Z,4.10
2022-09-02T01:30:18.970Z,4.60
2022-09-02T01:32:48.774Z,3.60
2022-09-02T01:35:19.278Z,4.00
2022-09-02T01:37:55.674Z,3.80
2022-09-02T01:40:29.376Z,4.20
2022-09-02T01:43:10.886Z,4.30
2022-09-02T01:45:43.829Z,3.80
2022-09-02T01:48:17.778Z,4.70
2022-09-02T01:50:59.247Z,3.80
2022-09-02T01:53:30.390Z,3.50
2022-09-02T01:56:00.852Z,4.00
2022-09-02T01:58:34.156Z,4.00
2022-09-02T02:01:08.692Z,4.60
2022-09-02T02:03:39.015Z,3.70
2022-09-02T02:06:16.211Z,3.30
2022-09-02T02:08:50.848Z,3.50
2022-09-02T02:11:27.353Z,3.20
2022-09-02T02:14:02.813Z,2.90
2022-09-02T02:16:33.766Z,3.30
2022-09-02T02:19:05.529Z,3.20
2022-09-02T02:21:38.170Z,3.40
2022-09-02T02:24:10.499Z,3.50
2022-09-02T02:26:41.862Z,2.90
2022-09-02T02:29:12.766Z,4.30
2022-09-02T02:31:44.124Z,3.70
2022-09-02T02:34:17.412Z,3.40
2022-09-02T02:36:48.496Z,3.50
2022-09-02T02:39:19.724Z,3.50
2022-09-02T02:41:49.367Z,2.80
2022-09-02T02:44:19.512Z,3.30
2022-09-02T02:46:51.011Z,2.90
2022-09-02T02:49:24.339Z,2.90
2022-09-02T02:51:55.112Z,2.90
2022-09-02T02:54:27.499Z,2.80
2022-09-02T02:57:07.782Z,3.20
2022-09-02T02:59:37.838Z,3.30
2022-09-02T03:02:08.018Z,3.00
2022-09-02T03:04:40.353Z,2.90
2022-09-02T03:07:10.703Z,3.10
2022-09-02T03:09:41.058Z,3.10
2022-09-02T03:12:12.245Z,2.90
2022-09-02T03:14:42.762Z,2.50
2022-09-02T03:17:13.239Z,2.40
2022-09-02T03:19:43.531Z,2.30
2022-09-02T03:22:13.947Z,2.70
2022-09-02T03:24:43.965Z,2.70
2022-09-02T03:27:14.850Z,2.70
2022-09-02T03:29:45.374Z,2.70
2022-09-02T03:32:15.821Z,2.60
2022-09-02T03:34:46.367Z,2.70
2022-09-02T03:37:15.843Z,2.50
2022-09-02T03:39:46.322Z,1.80
2022-09-02T03:42:19.852Z,2.70
2022-09-02T03:44:52.676Z,2.50
2022-09-02T03:47:24.491Z,2.90
2022-09-02T03:49:56.046Z,3.60
2022-09-02T03:52:26.186Z,2.90
2022-09-02T03:54:55.876Z,3.70
2022-09-02T03:57:27.882Z,3.70
2022-09-02T03:59:57.155Z,2.90
2022-09-02T04:02:26.792Z,3.80
2022-09-02T04:07:25.937Z,3.30
2022-09-02T04:09:56.800Z,3.00
2022-09-02T04:12:25.755Z,2.30
2022-09-02T04:15:05.628Z,2.80
2022-09-02T04:17:37.712Z,2.50
2022-09-02T04:20:10.554Z,2.90
2022-09-02T04:22:40.077Z,2.80
2022-09-02T04:25:10.200Z,3.00
2022-09-02T04:27:40.415Z,2.80
2022-09-02T04:30:11.367Z,2.40
2022-09-02T04:32:41.645Z,2.90
2022-09-02T04:35:11.280Z,2.60
2022-09-02T04:37:41.081Z,2.50
2022-09-02T04:40:10.925Z,2.90
2022-09-02T04:42:41.035Z,3.10
2022-09-02T04:45:11.291Z,2.70
2022-09-02T04:47:41.171Z,2.80
2022-09-02T04:50:11.287Z,3.00
2022-09-02T04:52:41.141Z,2.90
2022-09-02T04:55:11.280Z,3.20
2022-09-02T04:57:40.238Z,3.50
2022-09-02T05:00:10.653Z,3.30
2022-09-02T05:02:41.275Z,3.30
2022-09-02T05:05:11.845Z,3.80
2022-09-02T05:07:41.099Z,3.50
2022-09-02T05:10:13.041Z,3.70
2022-09-02T05:12:44.505Z,3.00
2022-09-02T05:15:14.356Z,3.10
2022-09-02T05:17:44.029Z,3.10
2022-09-02T05:20:14.357Z,3.10
2022-09-02T05:22:46.402Z,3.10
2022-09-02T05:25:17.259Z,3.20
2022-09-02T05:27:46.344Z,3.20
2022-09-02T05:30:16.370Z,3.40
2022-09-02T05:32:45.864Z,3.80
2022-09-02T05:35:17.417Z,3.90
2022-09-02T05:37:46.511Z,4.00
2022-09-02T05:40:15.704Z,4.60
2022-09-02T05:42:44.905Z,4.50
2022-09-02T05:45:16.749Z,3.90
2022-09-02T05:47:46.689Z,3.30
2022-09-02T05:50:16.802Z,4.80
2022-09-02T05:52:51.698Z,4.20
2022-09-02T05:55:20.929Z,3.60
2022-09-02T05:57:49.925Z,3.70
2022-09-02T06:00:19.440Z,3.70
2022-09-02T06:02:55.909Z,3.70
2022-09-02T06:05:38.625Z,3.20
2022-09-02T06:08:11.518Z,2.80
2022-09-02T06:10:43.731Z,3.60
2022-09-02T06:13:16.243Z,3.40
2022-09-02T06:15:45.844Z,3.40
2022-09-02T06:18:15.398Z,4.80
2022-09-02T06:20:47.930Z,4.10
2022-09-02T06:23:19.022Z,3.40
2022-09-02T06:25:49.703Z,3.70
2022-09-02T06:28:18.794Z,3.90
2022-09-02T06:33:24.461Z,4.00
2022-09-02T06:35:53.658Z,3.80
2022-09-02T06:38:22.956Z,3.50
2022-09-02T06:40:55.299Z,3.20
2022-09-02T06:43:42.219Z,5.00
2022-09-02T06:46:43.604Z,3.50
2022-09-02T06:49:16.592Z,3.40
2022-09-02T06:51:50.156Z,4.20
2022-09-02T06:54:21.628Z,4.30
2022-09-02T06:56:53.020Z,4.00
2022-09-02T06:59:25.247Z,3.80
2022-09-02T07:01:56.583Z,4.70
2022-09-02T07:04:44.741Z,4.30
2022-09-02T07:07:16.906Z,4.10
2022-09-02T07:09:53.135Z,4.30
2022-09-02T07:12:22.675Z,3.60
2022-09-02T07:15:05.438Z,4.20
2022-09-02T07:17:38.785Z,5.20
2022-09-02T07:20:11.874Z,4.70
2022-09-02T07:22:44.887Z,4.70
2022-09-02T07:25:17.936Z,4.70
2022-09-02T07:27:52.293Z,5.30
2022-09-02T07:30:21.569Z,4.20
2022-09-02T07:32:53.668Z,3.90
2022-09-02T07:35:24.947Z,4.50
2022-09-02T07:37:53.869Z,3.80
2022-09-02T07:40:23.831Z,4.30
2022-09-02T07:42:53.329Z,4.60
2022-09-02T07:45:22.894Z,3.10
2022-09-02T07:47:52.499Z,4.90
2022-09-02T07:50:22.204Z,4.60
2022-09-02T07:52:58.888Z,4.50
2022-09-02T07:55:31.459Z,4.80
2022-09-02T07:58:00.555Z,4.10
2022-09-02T08:00:29.815Z,4.70
2022-09-02T08:03:04.117Z,4.50
2022-09-02T08:05:37.749Z,4.00
2022-09-02T08:08:08.203Z,4.50
2022-09-02T08:10:38.039Z,3.90
2022-09-02T08:15:36.716Z,5.00
2022-09-02T08:18:07.178Z,4.00
2022-09-02T08:20:37.156Z,4.30
2022-09-02T08:25:42.517Z,4.40
2022-09-02T08:30:40.463Z,4.50
2022-09-02T08:33:09.498Z,4.50
2022-09-02T08:35:38.872Z,4.10
2022-09-02T08:38:07.435Z,4.40
2022-09-02T08:40:41.170Z,3.90
2022-09-02T08:43:40.358Z,3.90
2022-09-02T08:46:15.342Z,3.70
2022-09-02T08:48:59.700Z,4.20
2022-09-02T08:52:00.827Z,3.80
2022-09-02T08:54:46.263Z,4.30
2022-09-02T08:57:15.183Z,4.40
2022-09-02T08:59:46.745Z,4.00
2022-09-02T09:02:17.775Z,4.00
2022-09-02T09:05:10.864Z,3.90
2022-09-02T09:07:59.978Z,4.80
2022-09-02T09:10:47.732Z,3.90
2022-09-02T09:14:00.960Z,4.20
2022-09-02T09:16:59.717Z,4.40
2022-09-02T09:19:44.617Z,4.50
2022-09-02T09:22:16.720Z,4.50
2022-09-02T09:24:50.623Z,4.40
2022-09-02T09:27:22.618Z,3.80
2022-09-02T09:29:52.717Z,4.50
2022-09-02T09:32:36.364Z,4.30
2022-09-02T09:35:08.678Z,4.90
2022-09-02T09:37:43.005Z,4.20
2022-09-02T09:40:32.746Z,4.40
2022-09-02T09:45:46.962Z,4.50
2022-09-02T09:48:34.060Z,4.70
2022-09-02T09:51:02.747Z,4.40
2022-09-02T09:53:34.529Z,4.60
2022-09-02T09:56:05.519Z,3.80
2022-09-02T09:58:40.483Z,4.80
2022-09-02T10:01:23.764Z,4.60
2022-09-02T10:03:56.901Z,4.20
2022-09-02T10:06:31.951Z,4.80
2022-09-02T10:09:22.983Z,3.90
2022-09-02T10:12:01.041Z,4.20
2022-09-02T10:14:40.585Z,4.40
2022-09-02T10:17:25.977Z,4.20
2022-09-02T10:20:13.915Z,3.50
2022-09-02T10:22:59.483Z,4.00
2022-09-02T10:26:03.081Z,4.40
2022-09-02T10:28:51.834Z,4.80
2022-09-02T10:31:32.477Z,4.50
2022-09-02T10:34:01.909Z,4.00
2022-09-02T10:36:30.491Z,4.60
2022-09-02T10:39:40.135Z,4.60
2022-09-02T10:42:31.865Z,4.70
2022-09-02T10:45:09.693Z,4.60
2022-09-02T10:47:40.872Z,4.70
2022-09-02T10:50:23.772Z,4.40
2022-09-02T10:53:19.798Z,4.10
2022-09-02T10:55:51.543Z,3.90
2022-09-02T10:58:29.007Z,4.70
2022-09-02T11:00:59.014Z,4.60
2022-09-02T11:03:39.889Z,4.30
2022-09-02T11:06:40.457Z,4.60
2022-09-02T11:09:39.112Z,4.20
2022-09-02T11:12:17.503Z,4.40
2022-09-02T11:15:13.436Z,4.50
2022-09-02T11:18:05.103Z,4.30
2022-09-02T11:21:16.290Z,4.60
2022-09-02T11:24:33.406Z,6.50
2022-09-02T11:27:39.041Z,6.20
2022-09-02T11:30:22.743Z,4.60
2022-09-02T11:33:21.552Z,5.90
2022-09-02T11:36:00.358Z,5.30
2022-09-02T11:38:51.310Z,5.20
2022-09-02T11:41:51.778Z,4.80
2022-09-02T11:45:08.521Z,3.90
2022-09-02T11:47:56.486Z,4.50
2022-09-02T11:50:55.809Z,3.90
2022-09-02T11:53:46.799Z,5.00
2022-09-02T11:56:35.583Z,4.10
2022-09-02T11:59:08.333Z,4.20
2022-09-02T12:01:51.908Z,3.80
2022-09-02T12:07:26.822Z,4.30
2022-09-02T12:10:04.098Z,3.70
2022-09-02T12:12:40.402Z,4.00
2022-09-02T12:15:17.801Z,5.00
2022-09-02T12:17:54.370Z,4.30
2022-09-02T12:20:46.958Z,4.20
2022-09-02T12:23:49.957Z,4.10
2022-09-02T12:26:26.834Z,4.30
2022-09-02T12:29:21.042Z,4.60
2022-09-02T12:31:53.294Z,4.50
2022-09-02T12:34:26.421Z,4.30
2022-09-02T12:36:58.003Z,4.30
2022-09-02T12:39:37.403Z,4.30
2022-09-02T12:42:31.762Z,4.60
2022-09-02T12:45:29.121Z,4.20
2022-09-02T12:48:14.172Z,4.10
2022-09-02T12:50:57.800Z,4.10
2022-09-02T12:53:43.846Z,4.10
2022-09-02T12:56:25.181Z,4.30
2022-09-02T12:59:01.635Z,4.00
2022-09-02T13:02:02.803Z,4.50
2022-09-02T13:04:48.801Z,3.80
2022-09-02T13:07:41.765Z,3.90
2022-09-02T13:10:47.742Z,3.90
2022-09-02T13:13:56.618Z,4.30
2022-09-02T13:16:54.203Z,3.80
2022-09-02T13:19:46.435Z,3.40
2022-09-02T13:22:31.173Z,4.20
2022-09-02T13:25:22.065Z,3.60
2022-09-02T13:28:26.628Z,3.90
2022-09-02T13:31:23.485Z,4.20
2022-09-02T13:34:14.755Z,4.00
2022-09-02T13:36:49.247Z,4.40
2022-09-02T13:39:31.457Z,4.20
2022-09-02T13:42:21.447Z,4.20
2022-09-02T13:45:12.044Z,4.10
2022-09-02T13:47:49.249Z,3.70
2022-09-02T13:50:29.980Z,3.90
2022-09-02T13:56:00.883Z,3.90
2022-09-02T13:58:34.519Z,4.80
2022-09-02T14:01:21.159Z,3.80
2022-09-02T14:03:54.241Z,4.00
2022-09-02T14:06:38.056Z,4.60
2022-09-02T14:09:31.675Z,4.40
2022-09-02T14:12:05.782Z,4.80
2022-09-02T14:14:38.304Z,4.20
2022-09-02T14:17:31.022Z,3.80
2022-09-02T14:20:25.530Z,4.20
2022-09-02T14:22:59.865Z,3.60
2022-09-02T14:25:50.244Z,4.00
2022-09-02T14:28:27.518Z,4.60
2022-09-02T14:31:07.643Z,4.20
2022-09-02T14:36:25.872Z,3.90
2022-09-02T14:39:20.481Z,3.90
2022-09-02T14:41:52.842Z,4.40
2022-09-02T14:44:33.748Z,3.60
2022-09-02T14:47:08.672Z,3.20
2022-09-02T14:49:47.731Z,4.20
2022-09-02T14:52:25.691Z,3.30
2022-09-02T14:54:59.322Z,3.90
2022-09-02T14:57:40.129Z,3.80
2022-09-02T15:00:14.622Z,3.80
2022-09-02T15:02:50.163Z,3.50
2022-09-02T15:05:24.921Z,3.20
2022-09-02T15:07:57.328Z,3.40
2022-09-02T15:10:28.727Z,4.00
2022-09-02T15:12:58.660Z,3.50
2022-09-02T15:15:28.084Z,3.50
2022-09-02T15:17:57.053Z,3.90
2022-09-02T15:20:26.967Z,4.00
2022-09-02T15:22:58.319Z,3.50
2022-09-02T15:25:27.108Z,4.00
2022-09-02T15:27:56.403Z,3.20
2022-09-02T15:30:25.451Z,3.60
2022-09-02T15:32:54.275Z,3.30
2022-09-02T15:35:22.881Z,3.50
2022-09-02T15:37:51.741Z,3.40
2022-09-02T15:40:20.856Z,3.90
2022-09-02T15:42:49.849Z,3.90
2022-09-02T15:45:18.846Z,3.80
2022-09-02T15:47:47.428Z,4.10
2022-09-02T15:50:16.318Z,4.00
2022-09-02T15:52:47.859Z,4.20
2022-09-02T15:55:16.861Z,3.90
2022-09-02T15:57:45.925Z,4.50
2022-09-02T16:00:16.236Z,4.50
2022-09-02T16:02:45.205Z,4.20
2022-09-02T16:05:14.779Z,3.80
2022-09-02T16:07:43.874Z,4.10
2022-09-02T16:10:12.869Z,3.70
2022-09-02T16:12:41.633Z,3.90
2022-09-02T16:15:10.464Z,4.20
2022-09-02T16:17:39.259Z,4.10
2022-09-02T16:20:08.623Z,3.80
2022-09-02T16:22:37.836Z,3.70
2022-09-02T16:25:07.349Z,4.00
2022-09-02T16:27:55.482Z,3.40
2022-09-02T16:30:26.471Z,4.70
2022-09-02T16:32:55.512Z,3.60
2022-09-02T16:35:24.296Z,3.80
2022-09-02T16:37:54.212Z,4.10
2022-09-02T16:40:23.010Z,3.30
2022-09-02T16:42:51.686Z,3.70
2022-09-02T16:45:20.783Z,3.70
2022-09-02T16:47:49.527Z,3.90
2022-09-02T16:50:18.156Z,3.40
2022-09-02T16:52:47.495Z,4.20
2022-09-02T16:55:19.107Z,4.50
2022-09-02T16:57:47.725Z,4.30
2022-09-02T17:00:16.831Z,4.40
2022-09-02T17:02:45.898Z,3.80
2022-09-02T17:05:17.744Z,3.90
2022-09-02T17:07:47.552Z,4.50
2022-09-02T17:10:16.442Z,3.60
2022-09-02T17:12:45.083Z,3.40
2022-09-02T17:15:13.796Z,3.50
2022-09-02T17:17:42.910Z,3.90
2022-09-02T17:20:13.436Z,3.70
2022-09-02T17:22:42.431Z,4.20
2022-09-02T17:25:11.796Z,4.20
2022-09-02T17:27:42.260Z,4.70
2022-09-02T17:30:12.655Z,5.50
2022-09-02T17:32:42.291Z,4.90
2022-09-02T17:35:11.917Z,4.20
2022-09-02T17:37:41.508Z,3.90
2022-09-02T17:40:30.460Z,4.20
2022-09-02T17:42:59.153Z,5.10
2022-09-02T17:45:27.842Z,4.70
2022-09-02T17:47:59.315Z,3.90
2022-09-02T17:50:38.320Z,4.20
2022-09-02T17:53:07.679Z,5.10
2022-09-02T17:55:37.108Z,4.50
2022-09-02T17:58:17.866Z,4.30
2022-09-02T18:00:56.050Z,4.90
2022-09-02T18:04:11.845Z,5.80
2022-09-02T18:06:45.794Z,6.00
2022-09-02T18:09:26.712Z,6.00
2022-09-02T18:11:58.085Z,6.10
2022-09-02T18:14:39.028Z,5.60
2022-09-02T18:17:15.843Z,5.10
2022-09-02T18:20:00.084Z,5.70
2022-09-02T18:22:54.573Z,5.10
2022-09-02T18:26:02.045Z,5.40
2022-09-02T18:29:00.942Z,5.30
2022-09-02T18:32:19.814Z,5.00
2022-09-02T18:35:14.031Z,5.70
2022-09-02T18:38:10.203Z,5.40
2022-09-02T18:41:08.270Z,5.50
2022-09-02T18:44:14.628Z,5.70
2022-09-02T18:47:13.956Z,5.30
2022-09-02T18:49:48.477Z,4.50
2022-09-02T18:52:22.327Z,4.40
2022-09-02T18:55:17.800Z,4.70
2022-09-02T18:58:04.738Z,4.30
2022-09-02T19:00:45.012Z,4.40
2022-09-02T19:03:21.572Z,4.70
2022-09-02T19:05:54.263Z,4.40
2022-09-02T19:08:36.122Z,4.50
2022-09-02T19:11:13.689Z,5.20
2022-09-02T19:13:53.619Z,4.40
2022-09-02T19:16:36.004Z,6.20
2022-09-02T19:19:14.413Z,5.60
2022-09-02T19:21:52.177Z,5.60
2022-09-02T19:24:32.768Z,5.50
2022-09-02T19:27:11.130Z,5.50
2022-09-02T19:29:48.434Z,5.80
2022-09-02T19:32:33.965Z,5.20
2022-09-02T19:35:10.521Z,5.70
2022-09-02T19:37:44.787Z,6.50
2022-09-02T19:40:31.512Z,5.20
2022-09-02T19:43:05.266Z,5.20
2022-09-02T19:45:39.522Z,6.40
2022-09-02T19:48:16.813Z,5.30
2022-09-02T19:50:48.562Z,5.40
2022-09-02T19:53:23.582Z,5.90
2022-09-02T19:55:55.409Z,6.70
2022-09-02T19:58:24.698Z,6.30
2022-09-02T20:00:55.610Z,6.50
2022-09-02T20:03:24.284Z,8.10
2022-09-02T20:05:53.266Z,5.80
2022-09-02T20:08:29.310Z,6.00
2022-09-02T20:11:03.795Z,7.20
2022-09-02T20:13:40.983Z,6.10
2022-09-02T20:16:22.013Z,6.40
2022-09-02T20:18:53.251Z,5.20
2022-09-02T20:21:31.447Z,6.30
2022-09-02T20:24:11.702Z,6.10
2022-09-02T20:27:25.342Z,5.60
2022-09-02T20:30:02.116Z,5.40
2022-09-02T20:33:00.803Z,5.50
2022-09-02T20:35:51.827Z,4.90
2022-09-02T20:38:30.092Z,5.40
2022-09-02T20:41:35.781Z,5.10
2022-09-02T20:44:23.571Z,5.70
2022-09-02T20:47:10.908Z,5.60
2022-09-02T20:50:11.272Z,5.30
2022-09-02T20:52:54.495Z,4.80
2022-09-02T20:55:35.875Z,4.60
2022-09-02T20:58:48.056Z,4.30
2022-09-02T21:01:21.068Z,5.10
2022-09-02T21:04:00.607Z,5.10
2022-09-02T21:06:34.495Z,5.00
2022-09-02T21:09:40.788Z,5.00
2022-09-02T21:12:14.176Z,4.80
2022-09-02T21:15:21.316Z,5.00
2022-09-02T21:17:56.804Z,5.20
2022-09-02T21:20:50.179Z,4.20
2022-09-02T21:23:32.476Z,4.50
2022-09-02T21:26:38.639Z,4.50
2022-09-02T21:29:15.146Z,4.00
2022-09-02T21:31:58.489Z,4.60
2022-09-02T21:34:36.238Z,4.10
2022-09-02T21:37:08.462Z,4.60
2022-09-02T21:39:42.295Z,5.00
2022-09-02T21:42:27.801Z,5.20
2022-09-02T21:45:02.738Z,4.50
2022-09-02T21:47:41.048Z,4.20
2022-09-02T21:50:36.761Z,4.50
2022-09-02T21:53:38.803Z,4.50
2022-09-02T21:56:29.315Z,3.90
2022-09-02T21:59:07.131Z,5.20
2022-09-02T22:01:45.570Z,4.50
2022-09-02T22:04:20.365Z,4.00
2022-09-02T22:06:58.190Z,4.00
2022-09-02T22:09:32.942Z,3.90
2022-09-02T22:12:15.543Z,4.30
2022-09-02T22:15:08.408Z,4.30
2022-09-02T22:17:37.754Z,4.10
2022-09-02T22:20:08.349Z,4.60
2022-09-02T22:22:42.366Z,4.80
2022-09-02T22:25:16.922Z,4.00
2022-09-02T22:28:07.057Z,4.50
2022-09-02T22:30:39.345Z,4.10
2022-09-02T22:33:16.669Z,3.60
2022-09-02T22:35:54.363Z,4.40
2022-09-02T22:38:31.035Z,4.60
2022-09-02T22:41:26.886Z,4.20
2022-09-02T22:44:13.981Z,4.60
2022-09-02T22:47:11.759Z,4.80
2022-09-02T22:50:09.100Z,4.50
2022-09-02T22:52:48.095Z,4.70
2022-09-02T22:55:24.190Z,4.50
2022-09-02T22:58:05.055Z,4.60
2022-09-02T23:00:47.574Z,4.70
2022-09-02T23:03:36.167Z,4.20
2022-09-02T23:06:13.815Z,5.10
2022-09-02T23:08:46.259Z,4.00
2022-09-02T23:11:33.835Z,4.60
2022-09-02T23:14:12.511Z,4.10
2022-09-02T23:16:59.787Z,4.40
2022-09-02T23:19:44.726Z,4.70
2022-09-02T23:22:34.610Z,4.30
2022-09-02T23:25:22.448Z,3.60
2022-09-02T23:28:17.550Z,5.00
2022-09-02T23:31:31.455Z,4.80
2022-09-02T23:34:31.108Z,5.50
2022-09-02T23:37:25.913Z,4.70
2022-09-02T23:40:23.138Z,4.50
2022-09-02T23:42:52.066Z,4.30
2022-09-02T23:45:24.021Z,4.60
2022-09-02T23:48:20.768Z,4.50
2022-09-02T23:51:06.104Z,5.00
2022-09-02T23:54:12.207Z,4.10
2022-09-02T23:56:53.783Z,4.20
2022-09-02T23:59:58.738Z,4.60
